Leggett, Texas
Current Conditions -  °F | °C
As of 8:22 AM on Sunday 21 Dec 2014 (Local Time) from KLFK Reporting Station
Haze Haze  
Wind Chill: 47°   Ceiling: 2700
Heat Index: 47°   Visibility: 2.5mi
Dew Point: 42°   Wind: 0mph
Humidity: 83%   Direction: NA
Pressure: 30.14"   Gusts: NA
Location:  30.82°N, 94.87°W
Report Text: KLFK 211422Z AUTO 00000KT 2 1/2SM HZ SCT003 OVC027 08/06 A3014 RMK AO2 T00830056
Loading
Personal Weather Stations






























Interactive Weather Map New forecast layout! Learn more

10-Day Weather Forecast

Advertisements
Track Severe Weather on mobile